• Join FlightAware (Why Join?)
  • Login
  • US Flag 
02:26AM EST


 

Airport Tracker/Info


-or-


 

Live Flight TrackerFlight Track Log ✈ SWA2166 ✈ 27-Apr-2013 ✈ KPDX - KLAS

Flight Track Log - Related Links

Times and Time Zones

All times are in EDT time to prevent confusion due to time zone crossing. See the SWA2166 flight status page for this flight to view local times or setup timezone preferences in your user account.

Time Position Orientation Groundspeed Altitude Reporting Facility
EDT Latitude Longitude Course Direction KTS MPH feet Rate Location/Type
03:24PM 45.6072 -122.6419 290° West 178 205 1,900  Level Seattle Center
03:25PM 45.6186 -122.6739 297° West 187 215 3,000 3,420 Climbing Seattle Center
03:25PM 45.6353 -122.7169 299° West 220 253 5,400 3,780 Climbing Seattle Center
03:26PM 45.6475 -122.7472 300° West 204 235 6,900 3,240 Climbing Seattle Center
03:27PM 45.6000 -122.7672 196° South 249 287 10,100 2,520 Climbing Seattle Center
03:28PM 45.5286 -122.6856 141° Southeast 317 365 12,100 2,520 Climbing Seattle Center
03:29PM 45.4514 -122.5931 140° Southeast 356 410 15,300 2,880 Climbing Seattle Center
03:30PM 45.3647 -122.4944 141° Southeast 389 448 18,000 2,640 Climbing Seattle Center
03:31PM 45.2758 -122.3914 141° Southeast 405 466 20,700 2,400 Climbing Seattle Center
03:32PM 45.1811 -122.2853 142° Southeast 422 486 23,000 1,800 Climbing Seattle Center
03:33PM 45.0847 -122.1764 141° Southeast 435 501 24,400 1,740 Climbing Seattle Center
03:34PM 44.9772 -122.0947 152° Southeast 444 511 26,600 2,100 Climbing Seattle Center
03:35PM 44.8539 -122.0325 160° South 432 497 28,700 1,860 Climbing Seattle Center
03:36PM 44.7303 -122.0050 171° South 440 506 30,400 1,800 Climbing Seattle Center
03:37PM 44.6028 -121.9750 170° South 457 526 32,400 1,980 Climbing Seattle Center
03:38PM 44.4778 -121.9481 171° South 454 522 34,400 1,800 Climbing Seattle Center
03:39PM 44.3408 -121.8886 163° South 454 522 36,100 1,440 Climbing Seattle Center
03:40PM 44.2242 -121.8217 158° South 457 526 37,400 1,200 Climbing Seattle Center
03:41PM 44.1075 -121.7531 157° South 456 525 38,600 780 Climbing Seattle Center
03:42PM 43.9894 -121.6822 157° South 460 529 39,000 180 Climbing Seattle Center
03:43PM 43.8706 -121.6125 157° South 464 534 39,000  Level Seattle Center
03:44PM 43.7539 -121.5447 157° South 471 542 39,000  Level Seattle Center
03:45PM 43.6344 -121.4761 157° South 466 536 39,000  Level Seattle Center
03:46PM 43.5172 -121.4058 156° South 461 531 39,000  Level Seattle Center
03:47PM 43.3992 -121.3383 157° South 460 529 39,000  Level Seattle Center
03:48PM 43.2811 -121.2711 157° South 459 528 39,000  Level Seattle Center
03:49PM 43.1642 -121.2033 157° South 456 525 39,000  Level Seattle Center
03:50PM 43.0236 -121.1244 158° South 453 521 39,000  Level Seattle Center
03:51PM 42.9072 -121.0592 158° South 451 519 39,000  Level Seattle Center
03:52PM 42.7900 -120.9908 157° South 454 522 39,000  Level Seattle Center
03:53PM 42.6731 -120.9228 157° South 457 526 39,000  Level Seattle Center
03:54PM 42.5556 -120.8578 158° South 455 524 39,000  Level Seattle Center
03:55PM 42.4372 -120.7911 157° South 458 527 39,000  Level Seattle Center
03:56PM 42.3181 -120.7247 158° South 461 531 39,000  Level Seattle Center
03:57PM 42.2006 -120.6581 157° South 459 528 39,000  Level Seattle Center
03:58PM 42.0817 -120.5917 157° South 460 529 39,000  Level Seattle Center
03:59PM 41.9633 -120.5264 158° South 459 528 39,000  Level Seattle Center
04:00PM 41.8439 -120.4611 158° South 461 531 39,000  Level Seattle Center
04:01PM 41.7239 -120.3958 158° South 464 534 39,000  Level Seattle Center
04:02PM 41.6061 -120.3317 158° South 458 527 39,000  Level Seattle Center
04:03PM 41.4897 -120.2672 157° South 453 521 39,000  Level Seattle Center
04:04PM 41.3719 -120.2044 158° South 454 522 39,000  Level Seattle Center
04:05PM 41.2550 -120.1411 158° South 454 522 39,000  Level Seattle Center
04:06PM 41.1372 -120.0789 158° South 454 522 39,000  Level Seattle Center
04:07PM 41.0222 -120.0144 157° South 451 519 39,000  Level Seattle Center
04:08PM 40.9042 -119.9506 158° South 457 526 39,000  Level Seattle Center
04:09PM 40.8006 -119.8586 146° Southeast 450 518 39,000  Level Seattle Center
04:10PM 40.6747 -119.7547 148° Southeast 443 510 39,000  Level Seattle Center
04:11PM 40.5722 -119.6700 148° Southeast 446 513 39,000  Level Seattle Center
04:13PM 40.4467 -119.5658 148° Southeast 445 512 39,000  Level Oakland Center
04:14PM 40.3428 -119.4808 148° Southeast 443 510 39,000  Level Oakland Center
04:15PM 40.2383 -119.3969 148° Southeast 441 507 39,000  Level Oakland Center
04:16PM 40.1336 -119.3119 148° Southeast 441 507 39,000  Level Oakland Center
04:17PM 40.0294 -119.2272 148° Southeast 442 509 39,000  Level Oakland Center
04:18PM 39.9258 -119.1431 148° Southeast 440 506 39,000  Level Oakland Center
04:19PM 39.8222 -119.0583 148° Southeast 440 506 39,000  Level Oakland Center
04:20PM 39.7183 -118.9756 148° Southeast 439 505 39,000  Level Oakland Center
04:21PM 39.6147 -118.8928 148° Southeast 436 502 39,000  Level Oakland Center
04:22PM 39.5108 -118.8106 149° Southeast 437 503 39,000  Level Oakland Center
04:23PM 39.4042 -118.7253 148° Southeast 442 509 39,000  Level Oakland Center
04:24PM 39.2786 -118.6258 148° Southeast 441 507 39,000  Level Oakland Center
04:25PM 39.1847 -118.5517 149° Southeast 444 511 39,000 -180 Level Oakland Center
04:26PM 39.0783 -118.4683 149° Southeast 447 514 38,700 -660 Descending Oakland Center
04:27PM 38.9725 -118.3853 149° Southeast 447 514 37,700 -960 Descending Oakland Center
04:28PM 38.8658 -118.3028 149° Southeast 446 513 36,800 -1,080 Descending Oakland Center
04:29PM 38.7372 -118.2031 149° Southeast 450 518 35,600 -1,080 Descending Oakland Center
04:30PM 38.6289 -118.1197 149° Southeast 453 521 34,700 -960 Descending Oakland Center
04:31PM 38.5311 -118.0436 149° Southeast 453 521 33,700 -840 Descending Oakland Center
04:32PM 38.4236 -117.9600 149° Southeast 453 521 33,000 -360 Descending Oakland Center
04:33PM 38.3167 -117.8786 149° Southeast 450 518 33,000  Level Oakland Center
04:34PM 38.1914 -117.7850 150° Southeast 436 502 33,000  Level Oakland Center
04:35PM 38.0892 -117.7061 149° Southeast 433 498 33,000  Level Oakland Center
04:36PM 37.9864 -117.6275 149° Southeast 435 501 33,000  Level Oakland Center
04:37PM 37.8839 -117.5497 149° Southeast 434 499 33,000  Level Oakland Center
04:38PM 37.7803 -117.4731 150° Southeast 434 499 33,000  Level Oakland Center
04:39PM 37.6775 -117.3953 149° Southeast 433 498 33,000  Level Oakland Center
04:40PM 37.5733 -117.3192 150° Southeast 434 499 33,000  Level Oakland Center
04:41PM 37.4700 -117.2419 149° Southeast 433 498 33,000  Level Oakland Center
04:42PM 37.3447 -117.1503 150° Southeast 435 501 33,000  Level Oakland Center
04:43PM 37.2408 -117.0711 149° Southeast 440 506 33,000  Level Oakland Center
04:43PM 37.2214 -117.0547 146° Southeast 435 501 33,000  Level Los Angeles Center
04:44PM 37.1169 -116.9781 150° Southeast 434 499 33,000  Level Los Angeles Center
04:45PM 37.0336 -116.9175 150° Southeast 434 499 33,000  Level Oakland Center
04:46PM 36.9294 -116.8425 150° Southeast 429 494 33,000  Level Oakland Center
04:47PM 36.8869 -116.8111 149° Southeast 435 501 33,000 -1,200 Level Los Angeles Center
04:48PM 36.7878 -116.7314 147° Southeast 428 493 31,100 -1,860 Descending Los Angeles Center
04:49PM 36.7000 -116.6011 130° Southeast 407 468 28,800 -2,040 Descending Los Angeles Center
04:50PM 36.6267 -116.5000 132° Southeast 395 455 26,900 -1,860 Descending Los Angeles Center
04:51PM 36.5572 -116.3975 130° Southeast 389 448 25,000 -1,800 Descending Los Angeles Center
04:52PM 36.4872 -116.3003 132° Southeast 369 425 23,200 -1,920 Descending Los Angeles Center
04:53PM 36.4069 -116.1858 131° Southeast 387 445 21,100 -2,040 Descending Los Angeles Center
04:53PM 36.3664 -116.1389 137° Southeast 386 444 20,100 -1,860 Descending Los Angeles Center
04:54PM 36.3336 -116.0842 127° Southeast 369 425 19,200 -1,740 Descending Los Angeles Center
04:55PM 36.2844 -116.0239 135° Southeast 362 417 18,000 -1,560 Descending Los Angeles Center
04:55PM 36.2683 -115.9917 122° Southeast 357 411 17,600 -1,680 Descending Los Angeles Center
04:56PM 36.2219 -115.9322 134° Southeast 347 399 16,300 -1,560 Descending Los Angeles Center
04:56PM 36.2053 -115.9028 125° Southeast 343 395 16,000 -480 Descending Los Angeles Center
04:57PM 36.1800 -115.8444 118° Southeast 305 351 15,900 -780 Descending Los Angeles Center
04:57PM 36.1689 -115.8003 107° East 299 344 15,200 -1,320 Descending Los Angeles Center
04:58PM 36.1514 -115.7500 113° Southeast 293 337 14,600 -1,080 Descending Los Angeles Center
04:58PM 36.1386 -115.7083 111° Southeast 291 335 14,100 -1,020 Descending Los Angeles Center
04:59PM 36.1189 -115.6489 112° Southeast 285 328 13,500 -1,020 Descending Los Angeles Center
04:59PM 36.1069 -115.6106 111° Southeast 287 330 13,100 -600 Descending Los Angeles Center
05:00PM 36.0908 -115.5675 115° Southeast 285 328 13,000 -120 Descending Los Angeles Center
05:00PM 36.0794 -115.5244 108° East 281 323 13,000 -540 Level Los Angeles Center
05:01PM 36.0636 -115.4808 114° Southeast 279 321 12,500 -1,080 Descending Los Angeles Center
05:01PM 36.0517 -115.4364 108° East 277 319 11,900 -1,380 Descending Los Angeles Center
05:02PM 36.0322 -115.3847 115° Southeast 282 325 11,100 -1,020 Descending Los Angeles Center
05:02PM 36.0289 -115.3447 96° East 281 323 10,900 -900 Descending Los Angeles Center
05:03PM 36.0239 -115.2864 96° East 283 326 10,200 -1,500 Descending Los Angeles Center
05:03PM 36.0208 -115.2294 94° East 282 325 9,400 -1,320 Descending Los Angeles Center
05:04PM 36.0167 -115.1931 98° East 278 320 8,900 -1,140 Descending Los Angeles Center
05:05PM 36.0125 -115.1167 94° East 278 320 8,000 -600 Descending Los Angeles Center
05:06PM 36.0069 -115.0319 95° East 259 298 7,800 -600 Descending Los Angeles Center
05:07PM 36.0039 -114.9628 93° East 222 255 6,800 -1,020 Descending Los Angeles Center
05:08PM 36.0156 -114.9025 77° East 212 244 5,700 -960 Descending Los Angeles Center
05:09PM 36.0703 -114.9333 336° Northwest 188 216 4,900 -780 Descending Los Angeles Center
05:10PM 36.0744 -114.9961 275° West 189 217 4,100 -780 Descending Los Angeles Center
05:11PM 36.0744 -115.0583 270° West 187 215 3,200 -900 Descending Los Angeles Center
05:12PM 36.0744 -115.1214 270° West 169 194 2,100 -1,080 Descending Los Angeles Center
05:14PM 36.0667 -115.1500 270° West  Level FlightAware Approximate